createdAt,value
2018-12-29T00:03:08.288Z,67.80
2018-12-29T00:07:47.936Z,66.30
2018-12-29T00:12:06.012Z,66.30
2018-12-29T00:16:31.085Z,66.80
2018-12-29T00:20:47.110Z,65.60
2018-12-29T00:25:13.176Z,65.90
2018-12-29T00:29:29.198Z,66.20
2018-12-29T00:33:54.210Z,67.20
2018-12-29T00:38:15.500Z,68.70
2018-12-29T00:42:59.857Z,68.60
2018-12-29T00:47:17.454Z,68.60
2018-12-29T01:00:51.506Z,68.40
2018-12-29T01:05:09.786Z,67.80
2018-12-29T01:09:27.910Z,66.50
2018-12-29T01:13:52.958Z,67.00
2018-12-29T01:18:10.453Z,66.20
2018-12-29T01:22:35.481Z,66.00
2018-12-29T01:26:53.033Z,66.10
2018-12-29T01:36:12.943Z,66.30
2018-12-29T01:40:30.719Z,66.10
2018-12-29T01:44:55.739Z,66.00
2018-12-29T01:49:13.414Z,66.00
2018-12-29T02:50:51.003Z,68.30
2018-12-29T02:55:09.045Z,67.60
2018-12-29T02:59:27.330Z,67.20
2018-12-29T03:03:44.909Z,66.70
2018-12-29T03:08:02.729Z,67.00
2018-12-29T03:17:04.493Z,66.30
2018-12-29T03:21:22.778Z,65.70
2018-12-29T03:25:40.588Z,65.20
2018-12-29T03:29:58.407Z,65.50
2018-12-29T03:34:23.474Z,66.20
2018-12-29T03:38:41.266Z,67.20
2018-12-29T03:43:06.283Z,67.30
2018-12-29T03:47:23.916Z,66.90
2018-12-29T03:51:48.959Z,69.40
2018-12-29T03:56:06.780Z,69.70
2018-12-29T04:00:31.823Z,68.80
2018-12-29T04:04:49.914Z,69.10
2018-12-29T04:09:34.536Z,70.00
2018-12-29T04:13:52.568Z,69.20
2018-12-29T04:18:17.592Z,68.80
2018-12-29T04:22:35.451Z,66.90
2018-12-29T04:27:00.471Z,66.40
2018-12-29T04:31:17.959Z,68.20
2018-12-29T04:35:35.722Z,69.30
2018-12-29T04:40:00.750Z,67.60
2018-12-29T04:44:18.246Z,69.00
2018-12-29T04:48:35.850Z,69.30
2018-12-29T04:53:00.916Z,70.30
2018-12-29T04:57:18.761Z,71.40
2018-12-29T05:06:20.390Z,70.00
2018-12-29T05:10:36.326Z,70.30
2018-12-29T05:15:01.349Z,69.80
2018-12-29T05:19:19.308Z,69.40
2018-12-29T05:23:44.382Z,69.70
2018-12-29T05:28:02.242Z,70.40
2018-12-29T05:32:27.274Z,71.70
2018-12-29T05:36:44.832Z,72.00
2018-12-29T05:41:09.871Z,70.80
2018-12-29T05:45:27.592Z,69.00
2018-12-29T05:54:21.299Z,69.80
2018-12-29T06:03:18.941Z,68.10
2018-12-29T06:07:36.518Z,67.90
2018-12-29T06:11:54.400Z,68.10
2018-12-29T06:16:58.077Z,68.50
2018-12-29T06:21:54.598Z,69.80
2018-12-29T06:31:54.753Z,67.50
2018-12-29T06:36:58.358Z,67.10
2018-12-29T06:41:52.369Z,66.50
2018-12-29T06:51:51.940Z,65.80
2018-12-29T07:02:10.305Z,66.90
2018-12-29T07:17:51.953Z,68.30
2018-12-29T07:22:49.099Z,70.00
2018-12-29T07:27:52.705Z,66.90
2018-12-29T07:32:49.888Z,66.20
2018-12-29T07:37:53.485Z,65.60
2018-12-29T07:42:09.408Z,64.50
2018-12-29T07:46:53.742Z,64.10
2018-12-29T07:51:11.394Z,65.80
2018-12-29T07:55:55.452Z,65.80
2018-12-29T08:05:51.015Z,66.60
2018-12-29T08:10:47.388Z,65.90
2018-12-29T08:15:50.711Z,66.20
2018-12-29T08:20:47.866Z,66.00
2018-12-29T08:25:51.441Z,65.20
2018-12-29T08:35:51.017Z,67.10
2018-12-29T08:40:08.806Z,66.10
2018-12-29T08:49:51.423Z,67.50
2018-12-29T08:54:09.020Z,67.00
2018-12-29T08:58:26.869Z,68.30
2018-12-29T09:03:04.157Z,66.90
2018-12-29T09:12:06.225Z,64.40
2018-12-29T09:16:24.181Z,65.10
2018-12-29T09:20:49.221Z,64.60
2018-12-29T09:25:07.202Z,66.90
2018-12-29T09:29:32.222Z,64.20
2018-12-29T09:33:49.752Z,63.70
2018-12-29T09:38:14.797Z,65.00
2018-12-29T09:42:51.986Z,63.00
2018-12-29T09:47:19.756Z,63.50
2018-12-29T09:51:55.229Z,63.70
2018-12-29T09:56:04.588Z,63.90
2018-12-29T10:00:10.313Z,64.20
2018-12-29T10:04:16.023Z,64.00
2018-12-29T10:08:21.723Z,66.00
2018-12-29T10:12:27.391Z,66.70
2018-12-29T10:16:33.096Z,67.20
2018-12-29T10:20:38.788Z,63.40
2018-12-29T10:24:44.496Z,67.80
2018-12-29T10:34:51.673Z,69.80
2018-12-29T10:48:51.945Z,70.80
2018-12-29T11:08:50.539Z,70.80
2018-12-29T11:18:52.441Z,69.80
2018-12-29T11:33:48.150Z,66.10
2018-12-29T11:48:48.132Z,66.40
2018-12-29T11:53:51.926Z,67.10
2018-12-29T11:58:48.311Z,67.20
2018-12-29T12:03:52.005Z,66.70
2018-12-29T12:13:55.943Z,67.80
2018-12-29T12:23:54.937Z,66.30
2018-12-29T12:28:51.098Z,65.00
2018-12-29T12:33:54.702Z,66.30
2018-12-29T12:38:51.242Z,66.00
2018-12-29T12:48:50.074Z,67.50
2018-12-29T12:58:51.530Z,67.30
2018-12-29T13:03:48.390Z,66.10
2018-12-29T13:08:47.826Z,65.70
2018-12-29T14:09:01.141Z,67.40
2018-12-29T14:13:26.753Z,66.80
2018-12-29T14:17:44.357Z,67.80
2018-12-29T14:22:09.404Z,66.90
2018-12-29T14:26:26.910Z,67.20
2018-12-29T14:30:51.954Z,66.60
2018-12-29T14:35:09.528Z,67.00
2018-12-29T14:39:34.567Z,68.20
2018-12-29T14:43:52.320Z,66.90
2018-12-29T14:48:10.070Z,66.30
2018-12-29T14:52:35.102Z,65.90
2018-12-29T14:56:40.813Z,65.90
2018-12-29T15:00:46.515Z,66.10
2018-12-29T15:04:52.916Z,66.90
2018-12-29T15:08:58.620Z,67.30
2018-12-29T15:13:04.336Z,67.40
2018-12-29T15:17:10.058Z,66.30
2018-12-29T15:21:15.739Z,65.90
2018-12-29T15:25:21.440Z,65.50
2018-12-29T15:29:27.507Z,65.50
2018-12-29T15:33:33.279Z,65.50
2018-12-29T15:37:39.006Z,65.80
2018-12-29T15:41:44.696Z,66.20
2018-12-29T15:45:50.418Z,66.80
2018-12-29T15:49:56.546Z,66.60
2018-12-29T15:54:02.320Z,66.40
2018-12-29T15:58:08.297Z,67.90
2018-12-29T16:02:14.006Z,68.90
2018-12-29T16:06:19.705Z,69.80
2018-12-29T16:10:25.411Z,69.80
2018-12-29T16:14:35.492Z,68.90
2018-12-29T16:18:39.986Z,68.60
2018-12-29T16:22:45.680Z,69.20
2018-12-29T16:26:51.374Z,68.60
2018-12-29T16:30:57.111Z,67.80
2018-12-29T16:35:02.806Z,67.90
2018-12-29T16:39:08.544Z,67.90
2018-12-29T16:43:14.258Z,68.70
2018-12-29T16:47:19.976Z,68.20
2018-12-29T16:51:25.680Z,71.10
2018-12-29T16:55:31.372Z,68.90
2018-12-29T16:59:37.250Z,70.60
2018-12-29T17:03:42.938Z,69.70
2018-12-29T17:07:48.665Z,72.60
2018-12-29T17:11:54.336Z,69.40
2018-12-29T17:16:00.028Z,69.40
2018-12-29T17:20:07.095Z,71.70
2018-12-29T17:24:13.174Z,71.70
2018-12-29T17:28:18.904Z,70.30
2018-12-29T17:32:24.659Z,70.70
2018-12-29T17:36:30.334Z,71.30
2018-12-29T17:40:36.072Z,70.90
2018-12-29T17:44:41.784Z,69.40
2018-12-29T17:48:47.479Z,69.80
2018-12-29T17:52:53.254Z,69.80
2018-12-29T17:56:58.932Z,70.40
2018-12-29T18:01:04.630Z,70.40
2018-12-29T18:05:10.324Z,70.10
2018-12-29T18:09:16.024Z,72.30
2018-12-29T18:13:21.722Z,70.10
2018-12-29T18:21:53.750Z,70.20
2018-12-29T18:25:59.451Z,69.20
2018-12-29T18:30:06.246Z,69.40
2018-12-29T18:34:11.907Z,69.00
2018-12-29T18:38:17.664Z,69.00
2018-12-29T18:42:23.368Z,69.30
2018-12-29T18:46:29.148Z,69.40
2018-12-29T18:50:34.848Z,68.80
2018-12-29T18:54:40.535Z,69.70
2018-12-29T18:58:46.359Z,69.60
2018-12-29T19:02:52.107Z,68.60
2018-12-29T19:06:57.824Z,69.10
2018-12-29T19:11:03.486Z,68.90
2018-12-29T19:15:09.246Z,67.90
2018-12-29T19:19:15.215Z,67.40
2018-12-29T19:23:20.926Z,67.50
2018-12-29T19:27:27.032Z,68.40
2018-12-29T19:31:32.875Z,68.30
2018-12-29T19:35:53.449Z,67.50
2018-12-29T19:39:59.432Z,67.50
2018-12-29T19:44:05.129Z,67.50
2018-12-29T19:48:11.115Z,67.50
2018-12-29T19:52:16.762Z,66.40
2018-12-29T19:56:22.471Z,67.00
2018-12-29T20:00:51.969Z,68.20
2018-12-29T20:04:58.016Z,70.50
2018-12-29T20:09:05.473Z,72.10
2018-12-29T20:13:11.143Z,73.00
2018-12-29T20:17:16.852Z,74.10
2018-12-29T20:21:40.019Z,75.20
2018-12-29T20:25:45.721Z,75.90
2018-12-29T20:29:51.410Z,75.50
2018-12-29T20:33:58.080Z,77.00
2018-12-29T20:38:03.766Z,76.20
2018-12-29T20:42:09.463Z,77.70
2018-12-29T20:46:51.078Z,77.50
2018-12-29T20:50:56.927Z,80.20
2018-12-29T20:55:02.676Z,81.00
2018-12-29T20:59:08.425Z,80.90
2018-12-29T21:03:14.137Z,80.40
2018-12-29T21:07:49.922Z,78.40
2018-12-29T21:11:55.625Z,78.70
2018-12-29T21:16:49.214Z,77.40
2018-12-29T21:20:54.964Z,75.30
2018-12-29T21:25:00.928Z,73.60
2018-12-29T21:29:06.712Z,73.60
2018-12-29T21:33:12.449Z,74.80
2018-12-29T21:37:51.335Z,74.70
2018-12-29T21:41:57.022Z,73.60
2018-12-29T21:46:50.987Z,73.30
2018-12-29T21:50:56.687Z,73.30
2018-12-29T21:55:02.386Z,74.20
2018-12-29T21:59:08.151Z,75.00
2018-12-29T22:03:13.845Z,75.00
2018-12-29T22:07:49.585Z,75.40
2018-12-29T22:11:55.281Z,74.30
2018-12-29T22:16:49.134Z,73.60
2018-12-29T22:20:54.855Z,73.70
2018-12-29T22:25:00.535Z,74.00
2018-12-29T22:29:06.229Z,74.10
2018-12-29T22:33:12.092Z,74.60
2018-12-29T22:37:51.053Z,74.50
2018-12-29T22:41:56.731Z,75.30
2018-12-29T22:46:50.277Z,75.30
2018-12-29T22:50:55.978Z,74.70
2018-12-29T22:55:01.667Z,75.30
2018-12-29T22:59:07.345Z,76.60
2018-12-29T23:03:13.115Z,76.10
2018-12-29T23:07:48.765Z,76.30
2018-12-29T23:11:54.456Z,75.70
2018-12-29T23:16:00.186Z,75.10
2018-12-29T23:20:50.223Z,74.50
2018-12-29T23:25:49.529Z,74.70
2018-12-29T23:41:28.796Z,73.90
2018-12-29T23:52:48.336Z,75.90
2018-12-29T23:56:54.384Z,75.00
